Terminal Aerodrome Forecast
Issued by NWS

Home | Current Version | Previous Version | Text Only | Print | Product List | Glossary On
Versions: 1 2 3 4 5 6 7 8 9 10 11 12 13 14 15 16 17
810
FTUS41 KPBZ 031133
TAFBVI
TAF
KBVI 031133Z 0312/0412 35004KT 1/4SM FG OVC007
     FM031330 35004KT 2SM BR OVC008
     FM031500 34005KT P6SM BKN015
     FM031600 30005KT P6SM BKN045=

USA.gov is the U.S. government's official web portal to all federal, state and local government web resources and services.